createdAt,value
2023-03-06T00:00:22.902Z,9.98
2023-03-06T00:04:05.016Z,12.88
2023-03-06T00:07:47.085Z,13.50
2023-03-06T00:11:29.084Z,11.40
2023-03-06T00:15:11.948Z,16.13
2023-03-06T00:18:53.912Z,13.52
2023-03-06T00:22:35.816Z,11.27
2023-03-06T00:26:17.759Z,13.25
2023-03-06T00:30:01.586Z,12.52
2023-03-06T00:33:43.652Z,12.40
2023-03-06T00:37:26.107Z,12.13
2023-03-06T00:41:13.771Z,15.43
2023-03-06T00:44:55.746Z,16.97
2023-03-06T00:48:37.718Z,16.48
2023-03-06T00:52:19.603Z,18.02
2023-03-06T00:56:01.562Z,14.98
2023-03-06T00:59:43.577Z,15.10
2023-03-06T01:03:25.485Z,14.45
2023-03-06T01:07:07.544Z,15.55
2023-03-06T01:10:49.551Z,12.73
2023-03-06T01:14:32.121Z,13.73
2023-03-06T01:18:14.375Z,15.32
2023-03-06T01:21:56.325Z,13.30
2023-03-06T01:25:38.289Z,14.13
2023-03-06T01:29:20.717Z,13.43
2023-03-06T01:33:02.754Z,15.63
2023-03-06T01:36:44.752Z,15.73
2023-03-06T01:40:26.686Z,15.48
2023-03-06T01:44:13.694Z,14.80
2023-03-06T01:47:56.230Z,15.77
2023-03-06T01:51:48.909Z,14.93
2023-03-06T01:55:33.990Z,15.52
2023-03-06T01:59:16.853Z,15.83
2023-03-06T02:03:09.723Z,13.82
2023-03-06T02:06:51.891Z,15.30
2023-03-06T02:10:34.553Z,14.18
2023-03-06T02:14:17.577Z,11.93
2023-03-06T02:18:00.556Z,11.60
2023-03-06T02:21:42.589Z,12.60
2023-03-06T02:25:48.252Z,13.80
2023-03-06T02:29:30.848Z,14.95
2023-03-06T02:33:18.116Z,15.73
2023-03-06T02:37:09.027Z,12.70
2023-03-06T02:40:52.401Z,14.98
2023-03-06T02:44:36.126Z,13.68
2023-03-06T02:48:19.432Z,13.48
2023-03-06T02:52:01.438Z,15.47
2023-03-06T02:55:43.959Z,15.13
2023-03-06T02:59:25.936Z,15.30
2023-03-06T03:03:08.618Z,14.57
2023-03-06T03:06:50.521Z,17.33
2023-03-06T03:10:32.555Z,17.40
2023-03-06T03:14:14.457Z,20.37
2023-03-06T03:17:56.419Z,14.88
2023-03-06T03:21:39.942Z,15.75
2023-03-06T03:25:23.628Z,13.23
2023-03-06T03:29:05.658Z,12.80
2023-03-06T03:32:47.663Z,13.93
2023-03-06T03:36:29.665Z,12.45
2023-03-06T03:40:12.172Z,10.57
2023-03-06T03:43:54.131Z,11.68
2023-03-06T03:47:36.035Z,11.00
2023-03-06T03:51:17.954Z,9.13
2023-03-06T03:55:00.197Z,10.15
2023-03-06T03:58:42.115Z,11.40
2023-03-06T04:02:24.222Z,10.20
2023-03-06T04:06:06.625Z,8.63
2023-03-06T04:09:48.636Z,11.13
2023-03-06T04:13:30.580Z,7.68
2023-03-06T04:17:12.574Z,9.77
2023-03-06T04:20:54.751Z,9.80
2023-03-06T04:24:36.671Z,7.75
2023-03-06T04:28:18.700Z,10.47
2023-03-06T04:32:00.800Z,7.50
2023-03-06T04:35:42.871Z,7.78
2023-03-06T04:39:24.828Z,7.93
2023-03-06T04:43:06.716Z,7.43
2023-03-06T04:46:48.762Z,8.75
2023-03-06T04:50:32.726Z,8.82
2023-03-06T04:54:14.756Z,7.47
2023-03-06T04:57:57.485Z,7.82
2023-03-06T05:01:39.822Z,9.18
2023-03-06T05:05:21.800Z,8.70
2023-03-06T05:09:04.038Z,11.18
2023-03-06T05:12:45.994Z,11.10
2023-03-06T05:16:27.957Z,16.67
2023-03-06T05:20:11.724Z,15.63
2023-03-06T05:23:53.725Z,15.85
2023-03-06T05:27:35.690Z,12.13
2023-03-06T05:31:17.798Z,12.10
2023-03-06T05:34:59.748Z,10.18
2023-03-06T05:38:41.751Z,10.73
2023-03-06T05:42:23.814Z,10.03
2023-03-06T05:46:07.121Z,9.43
2023-03-06T05:49:49.144Z,9.38
2023-03-06T05:53:32.143Z,9.57
2023-03-06T05:57:14.056Z,7.80
2023-03-06T06:00:56.266Z,8.82
2023-03-06T06:04:38.307Z,8.55
2023-03-06T06:08:21.373Z,8.73
2023-03-06T06:12:03.868Z,7.90
2023-03-06T06:15:45.900Z,9.15
2023-03-06T06:19:31.423Z,9.03
2023-03-06T06:23:13.414Z,8.32
2023-03-06T06:26:57.230Z,8.65
2023-03-06T06:30:39.243Z,7.38
2023-03-06T06:34:22.093Z,14.93
2023-03-06T06:38:04.082Z,7.57
2023-03-06T06:42:05.473Z,7.30
2023-03-06T06:45:59.682Z,7.83
2023-03-06T06:49:52.804Z,8.65
2023-03-06T06:53:34.874Z,8.57
2023-03-06T06:57:17.188Z,6.33
2023-03-06T07:01:09.127Z,7.60
2023-03-06T07:05:03.051Z,8.57
2023-03-06T07:08:53.340Z,7.88
2023-03-06T07:12:36.797Z,8.47
2023-03-06T07:16:19.155Z,8.38
2023-03-06T07:20:11.359Z,11.30
2023-03-06T07:23:54.392Z,6.70
2023-03-06T07:31:37.397Z,10.68
2023-03-06T07:35:20.831Z,10.30
2023-03-06T07:39:23.542Z,7.65
2023-03-06T07:43:18.657Z,8.48
2023-03-06T07:47:16.855Z,8.52
2023-03-06T07:51:13.588Z,7.50
2023-03-06T07:55:10.319Z,9.05
2023-03-06T07:58:52.444Z,8.85
2023-03-06T08:03:02.762Z,8.67
2023-03-06T08:06:45.192Z,9.63
2023-03-06T08:10:58.668Z,8.60
2023-03-06T08:14:40.679Z,11.60
2023-03-06T08:19:08.246Z,8.02
2023-03-06T08:23:19.047Z,7.63
2023-03-06T08:27:01.442Z,8.93
2023-03-06T08:34:56.234Z,8.52
2023-03-06T08:43:43.985Z,8.80
2023-03-06T08:47:26.256Z,8.88
2023-03-06T08:51:29.297Z,8.68
2023-03-06T08:55:12.515Z,9.32
2023-03-06T08:59:42.418Z,9.10
2023-03-06T09:07:40.539Z,8.15
2023-03-06T09:11:46.109Z,10.70
2023-03-06T09:15:28.101Z,6.03
2023-03-06T09:19:56.103Z,9.57
2023-03-06T09:28:01.797Z,7.78
2023-03-06T09:32:02.561Z,10.68
2023-03-06T09:35:51.097Z,10.73
2023-03-06T09:43:47.049Z,7.32
2023-03-06T09:47:49.408Z,8.77
2023-03-06T09:56:12.027Z,9.20
2023-03-06T10:00:16.727Z,10.15
2023-03-06T10:04:01.756Z,8.13
2023-03-06T10:08:31.126Z,7.45
2023-03-06T10:12:58.918Z,7.97
2023-03-06T10:21:16.935Z,9.47
2023-03-06T10:25:30.305Z,7.25
2023-03-06T10:30:01.251Z,6.43
2023-03-06T10:34:30.036Z,6.10
2023-03-06T10:42:12.742Z,7.25
2023-03-06T10:54:48.330Z,12.63
2023-03-06T10:59:04.838Z,6.03
2023-03-06T11:03:21.148Z,10.20
2023-03-06T11:11:38.129Z,5.05
2023-03-06T11:16:06.160Z,7.13
2023-03-06T11:20:48.900Z,4.72
2023-03-06T11:24:50.476Z,4.68
2023-03-06T11:32:58.233Z,6.80
2023-03-06T11:45:17.701Z,4.37
2023-03-06T11:53:20.070Z,4.95
2023-03-06T11:57:34.528Z,3.67
2023-03-06T12:05:36.271Z,2.67
2023-03-06T12:13:40.198Z,5.75
2023-03-06T12:39:31.027Z,3.63
2023-03-06T12:43:59.412Z,5.30
2023-03-06T12:52:38.685Z,3.97
2023-03-06T12:56:22.357Z,3.40
2023-03-06T13:17:49.265Z,2.92
2023-03-06T13:21:54.926Z,3.37
2023-03-06T13:29:53.082Z,5.00
2023-03-06T13:33:36.410Z,2.58
2023-03-06T13:37:50.361Z,6.57
2023-03-06T13:41:32.886Z,2.10
2023-03-06T13:45:33.535Z,3.80
2023-03-06T13:49:23.143Z,3.83
2023-03-06T14:10:47.394Z,3.70
2023-03-06T14:15:02.125Z,3.20
2023-03-06T14:27:20.090Z,5.03
2023-03-06T14:31:06.283Z,2.65
2023-03-06T14:38:57.234Z,3.42
2023-03-06T14:43:24.755Z,3.38
2023-03-06T15:08:09.573Z,6.47
2023-03-06T15:12:38.973Z,6.15
2023-03-06T15:16:52.132Z,7.43
2023-03-06T15:29:37.941Z,6.72
2023-03-06T18:13:01.893Z,4.00
2023-03-06T18:16:47.224Z,4.68
2023-03-06T18:20:50.824Z,4.28
2023-03-06T18:24:44.122Z,5.43
2023-03-06T18:28:30.441Z,6.15
2023-03-06T18:32:13.561Z,6.22
2023-03-06T18:36:06.906Z,4.75
2023-03-06T18:39:49.534Z,4.90
2023-03-06T18:44:19.120Z,5.35
2023-03-06T19:53:35.491Z,7.70
2023-03-06T19:57:17.649Z,4.95
2023-03-06T20:01:11.827Z,5.90
2023-03-06T20:04:54.865Z,6.73
2023-03-06T20:08:37.324Z,3.75
2023-03-06T20:12:19.498Z,5.03
2023-03-06T20:16:04.899Z,5.50
2023-03-06T20:19:46.915Z,5.07
2023-03-06T20:23:29.828Z,5.32
2023-03-06T20:27:12.226Z,6.07
2023-03-06T20:30:54.317Z,6.40
2023-03-06T20:34:39.040Z,5.35
2023-03-06T20:38:21.423Z,3.55
2023-03-06T20:42:04.017Z,3.70
2023-03-06T20:46:02.409Z,3.78
2023-03-06T20:49:44.550Z,4.22
2023-03-06T20:53:26.530Z,5.17
2023-03-06T20:57:11.052Z,5.60
2023-03-06T21:00:53.728Z,4.95
2023-03-06T21:04:36.362Z,7.00
2023-03-06T21:08:18.466Z,3.35
2023-03-06T21:12:00.682Z,4.53
2023-03-06T21:15:47.781Z,5.05
2023-03-06T21:19:30.029Z,4.90
2023-03-06T21:23:12.135Z,4.45
2023-03-06T21:26:54.565Z,4.97
2023-03-06T21:30:36.658Z,4.10
2023-03-06T21:34:18.887Z,5.22
2023-03-06T21:38:01.122Z,4.28
2023-03-06T21:41:43.254Z,5.60
2023-03-06T21:45:27.978Z,4.45
2023-03-06T21:49:10.179Z,6.03
2023-03-06T21:52:52.913Z,5.47
2023-03-06T21:56:34.958Z,4.30
2023-03-06T22:00:17.610Z,4.65
2023-03-06T22:04:00.507Z,5.03
2023-03-06T22:07:43.434Z,5.40
2023-03-06T22:11:26.913Z,5.90
2023-03-06T22:15:09.736Z,6.22
2023-03-06T22:18:52.451Z,6.07
2023-03-06T22:22:34.502Z,10.20
2023-03-06T22:26:16.475Z,5.78
2023-03-06T22:29:58.519Z,7.88
2023-03-06T22:33:40.938Z,7.60
2023-03-06T22:37:22.950Z,7.85
2023-03-06T22:41:05.977Z,6.25
2023-03-06T22:44:48.065Z,6.17
2023-03-06T22:48:30.439Z,9.32
2023-03-06T22:52:15.120Z,6.65
2023-03-06T22:56:01.943Z,6.83
2023-03-06T22:59:43.978Z,8.02
2023-03-06T23:03:26.084Z,5.25
2023-03-06T23:07:08.243Z,6.32
2023-03-06T23:10:50.160Z,6.37
2023-03-06T23:14:32.946Z,10.10
2023-03-06T23:18:27.749Z,6.68
2023-03-06T23:22:09.950Z,6.93
2023-03-06T23:25:52.990Z,5.45
2023-03-06T23:29:35.074Z,8.48
2023-03-06T23:33:17.101Z,9.27
2023-03-06T23:36:59.193Z,5.07
2023-03-06T23:40:41.187Z,7.30
2023-03-06T23:44:23.106Z,7.82
2023-03-06T23:48:08.023Z,5.60
2023-03-06T23:52:03.305Z,6.10
2023-03-06T23:55:47.755Z,7.05
2023-03-06T23:59:29.751Z,6.83
